sensor_id;sensor_type;location;lat;lon;timestamp;pressure;altitude;pressure_sealevel;temperature;humidity
45357;BME280;31092;51.924;21.448;2023-02-04T00:01:22;99420.91;;;-2.15;100.00
45357;BME280;31092;51.924;21.448;2023-02-04T00:03:47;99533.00;;;-1.57;100.00
45357;BME280;31092;51.924;21.448;2023-02-04T00:06:13;99515.59;;;-1.59;100.00
45357;BME280;31092;51.924;21.448;2023-02-04T00:08:38;99514.63;;;-1.71;100.00
45357;BME280;31092;51.924;21.448;2023-02-04T00:11:04;99551.47;;;-1.57;100.00
45357;BME280;31092;51.924;21.448;2023-02-04T00:13:29;99480.00;;;-2.05;100.00
45357;BME280;31092;51.924;21.448;2023-02-04T00:15:55;99461.50;;;-2.18;100.00
45357;BME280;31092;51.924;21.448;2023-02-04T00:18:20;99576.75;;;-1.53;100.00
45357;BME280;31092;51.924;21.448;2023-02-04T00:20:46;99555.50;;;-1.77;100.00
45357;BME280;31092;51.924;21.448;2023-02-04T00:23:11;99506.78;;;-2.11;100.00
45357;BME280;31092;51.924;21.448;2023-02-04T00:25:37;99586.97;;;-1.61;100.00
45357;BME280;31092;51.924;21.448;2023-02-04T00:28:02;99570.31;;;-1.74;100.00
45357;BME280;31092;51.924;21.448;2023-02-04T00:30:28;99525.91;;;-2.07;100.00
45357;BME280;31092;51.924;21.448;2023-02-04T00:32:54;99572.41;;;-1.79;100.00
45357;BME280;31092;51.924;21.448;2023-02-04T00:35:22;99476.97;;;-2.51;100.00
45357;BME280;31092;51.924;21.448;2023-02-04T00:37:47;99512.72;;;-2.20;100.00
45357;BME280;31092;51.924;21.448;2023-02-04T00:40:13;99591.72;;;-1.79;100.00
45357;BME280;31092;51.924;21.448;2023-02-04T00:42:38;99637.91;;;-1.59;100.00
45357;BME280;31092;51.924;21.448;2023-02-04T00:45:04;99543.19;;;-2.16;100.00
45357;BME280;31092;51.924;21.448;2023-02-04T00:47:30;99641.72;;;-1.63;100.00
45357;BME280;31092;51.924;21.448;2023-02-04T00:49:55;99555.84;;;-2.21;100.00
45357;BME280;31092;51.924;21.448;2023-02-04T00:52:20;99557.94;;;-2.26;100.00
45357;BME280;31092;51.924;21.448;2023-02-04T00:54:46;99667.41;;;-1.79;100.00
45357;BME280;31092;51.924;21.448;2023-02-04T00:57:11;99542.88;;;-2.51;100.00
45357;BME280;31092;51.924;21.448;2023-02-04T00:59:37;99697.66;;;-1.71;100.00
45357;BME280;31092;51.924;21.448;2023-02-04T01:02:02;99637.38;;;-2.04;100.00
45357;BME280;31092;51.924;21.448;2023-02-04T01:04:28;99589.53;;;-2.39;100.00
45357;BME280;31092;51.924;21.448;2023-02-04T01:06:54;99651.19;;;-2.13;100.00
45357;BME280;31092;51.924;21.448;2023-02-04T01:09:19;99716.44;;;-1.75;100.00
45357;BME280;31092;51.924;21.448;2023-02-04T01:11:45;99678.56;;;-2.01;100.00
45357;BME280;31092;51.924;21.448;2023-02-04T01:14:11;99710.31;;;-1.76;100.00
45357;BME280;31092;51.924;21.448;2023-02-04T01:16:37;99610.56;;;-2.37;100.00
45357;BME280;31092;51.924;21.448;2023-02-04T01:19:02;99614.13;;;-2.38;100.00
45357;BME280;31092;51.924;21.448;2023-02-04T01:21:27;99600.06;;;-2.52;100.00
45357;BME280;31092;51.924;21.448;2023-02-04T01:23:53;99654.91;;;-2.30;100.00
45357;BME280;31092;51.924;21.448;2023-02-04T01:26:19;99651.41;;;-2.30;100.00
45357;BME280;31092;51.924;21.448;2023-02-04T01:28:45;99630.75;;;-2.51;100.00
45357;BME280;31092;51.924;21.448;2023-02-04T01:43:19;99686.56;;;-2.44;100.00
45357;BME280;31092;51.924;21.448;2023-02-04T01:45:47;99761.50;;;-2.05;100.00
45357;BME280;31092;51.924;21.448;2023-02-04T01:48:13;99788.81;;;-1.92;100.00
45357;BME280;31092;51.924;21.448;2023-02-04T01:50:46;99732.22;;;-2.29;100.00
45357;BME280;31092;51.924;21.448;2023-02-04T01:53:13;99834.50;;;-1.77;100.00
45357;BME280;31092;51.924;21.448;2023-02-04T01:55:40;99813.59;;;-1.95;100.00
45357;BME280;31092;51.924;21.448;2023-02-04T01:58:09;99754.38;;;-2.32;100.00
45357;BME280;31092;51.924;21.448;2023-02-04T02:00:35;99809.47;;;-2.13;100.00
45357;BME280;31092;51.924;21.448;2023-02-04T02:03:00;99832.06;;;-1.95;100.00
45357;BME280;31092;51.924;21.448;2023-02-04T02:05:36;99833.41;;;-2.02;100.00
45357;BME280;31092;51.924;21.448;2023-02-04T02:08:04;99873.03;;;-1.75;100.00
45357;BME280;31092;51.924;21.448;2023-02-04T02:10:30;99833.41;;;-2.02;100.00
45357;BME280;31092;51.924;21.448;2023-02-04T02:12:56;99779.53;;;-2.41;100.00
45357;BME280;31092;51.924;21.448;2023-02-04T02:15:23;99819.16;;;-2.28;100.00
45357;BME280;31092;51.924;21.448;2023-02-04T02:17:50;99894.16;;;-1.89;100.00
45357;BME280;31092;51.924;21.448;2023-02-04T02:20:17;99835.00;;;-2.28;100.00
45357;BME280;31092;51.924;21.448;2023-02-04T02:23:04;99886.25;;;-2.03;100.00
45357;BME280;31092;51.924;21.448;2023-02-04T02:25:31;99903.41;;;-1.96;100.00
45357;BME280;31092;51.924;21.448;2023-02-04T02:27:58;99846.59;;;-2.30;100.00
45357;BME280;31092;51.924;21.448;2023-02-04T02:30:25;99852.81;;;-2.31;100.00
45357;BME280;31092;51.924;21.448;2023-02-04T02:32:52;99944.13;;;-1.86;100.00
45357;BME280;31092;51.924;21.448;2023-02-04T02:35:18;99971.00;;;-1.79;100.00
45357;BME280;31092;51.924;21.448;2023-02-04T02:37:44;99922.47;;;-2.20;100.00
45357;BME280;31092;51.924;21.448;2023-02-04T02:40:24;99902.19;;;-2.33;100.00
45357;BME280;31092;51.924;21.448;2023-02-04T02:42:51;99894.16;;;-2.46;100.00
45357;BME280;31092;51.924;21.448;2023-02-04T02:45:26;100024.41;;;-1.74;100.00
45357;BME280;31092;51.924;21.448;2023-02-04T02:47:53;100001.72;;;-1.93;100.00
45357;BME280;31092;51.924;21.448;2023-02-04T02:50:24;99940.81;;;-2.32;100.00
45357;BME280;31092;51.924;21.448;2023-02-04T02:52:50;100033.81;;;-1.84;100.00
45357;BME280;31092;51.924;21.448;2023-02-04T02:55:18;100039.56;;;-1.92;100.00
45357;BME280;31092;51.924;21.448;2023-02-04T02:57:45;99965.00;;;-2.40;100.00
45357;BME280;31092;51.924;21.448;2023-02-04T03:00:17;100027.19;;;-2.06;100.00
45357;BME280;31092;51.924;21.448;2023-02-04T03:02:44;100000.09;;;-2.24;100.00
45357;BME280;31092;51.924;21.448;2023-02-04T03:05:11;100059.25;;;-1.98;100.00
45357;BME280;31092;51.924;21.448;2023-02-04T03:07:37;99975.06;;;-2.47;100.00
45357;BME280;31092;51.924;21.448;2023-02-04T03:10:03;100085.09;;;-1.88;100.00
45357;BME280;31092;51.924;21.448;2023-02-04T03:12:29;100027.66;;;-2.29;100.00
45357;BME280;31092;51.924;21.448;2023-02-04T03:14:54;100031.44;;;-2.33;100.00
45357;BME280;31092;51.924;21.448;2023-02-04T03:17:19;100048.88;;;-2.31;100.00
45357;BME280;31092;51.924;21.448;2023-02-04T03:19:47;100036.03;;;-2.37;100.00
45357;BME280;31092;51.924;21.448;2023-02-04T03:22:13;100097.59;;;-2.06;100.00
45357;BME280;31092;51.924;21.448;2023-02-04T03:24:38;100062.13;;;-2.32;100.00
45357;BME280;31092;51.924;21.448;2023-02-04T03:27:04;100080.75;;;-2.20;100.00
45357;BME280;31092;51.924;21.448;2023-02-04T03:29:29;100062.97;;;-2.32;100.00
45357;BME280;31092;51.924;21.448;2023-02-04T03:31:55;100040.97;;;-2.47;100.00
45357;BME280;31092;51.924;21.448;2023-02-04T03:34:21;100152.69;;;-1.86;100.00
45357;BME280;31092;51.924;21.448;2023-02-04T03:36:47;100179.69;;;-1.81;100.00
45357;BME280;31092;51.924;21.448;2023-02-04T03:39:12;100125.63;;;-2.20;100.00
45357;BME280;31092;51.924;21.448;2023-02-04T03:41:37;100205.31;;;-1.83;100.00
45357;BME280;31092;51.924;21.448;2023-02-04T03:44:03;100103.44;;;-2.47;100.00
45357;BME280;31092;51.924;21.448;2023-02-04T03:46:29;100231.81;;;-1.84;100.00
45357;BME280;31092;51.924;21.448;2023-02-04T03:48:54;100171.31;;;-2.19;100.00
45357;BME280;31092;51.924;21.448;2023-02-04T03:51:20;100199.91;;;-2.11;100.00
45357;BME280;31092;51.924;21.448;2023-02-04T03:53:45;100188.00;;;-2.19;100.00
45357;BME280;31092;51.924;21.448;2023-02-04T03:56:10;100253.50;;;-1.79;100.00
45357;BME280;31092;51.924;21.448;2023-02-04T03:58:36;100259.56;;;-1.77;100.00
45357;BME280;31092;51.924;21.448;2023-02-04T04:01:01;100238.63;;;-1.96;100.00
45357;BME280;31092;51.924;21.448;2023-02-04T04:03:27;100247.31;;;-1.94;100.00
45357;BME280;31092;51.924;21.448;2023-02-04T04:05:52;100184.00;;;-2.42;100.00
45357;BME280;31092;51.924;21.448;2023-02-04T04:08:18;100302.41;;;-1.72;100.00
45357;BME280;31092;51.924;21.448;2023-02-04T04:10:43;100210.88;;;-2.35;100.00
45357;BME280;31092;51.924;21.448;2023-02-04T04:13:09;100321.50;;;-1.67;100.00
45357;BME280;31092;51.924;21.448;2023-02-04T04:15:34;100256.25;;;-2.12;100.00
45357;BME280;31092;51.924;21.448;2023-02-04T04:17:59;100247.41;;;-2.27;100.00
45357;BME280;31092;51.924;21.448;2023-02-04T04:20:26;100247.81;;;-2.35;100.00
45357;BME280;31092;51.924;21.448;2023-02-04T04:22:52;100375.38;;;-1.71;100.00
45357;BME280;31092;51.924;21.448;2023-02-04T04:25:18;100377.44;;;-1.76;100.00
45357;BME280;31092;51.924;21.448;2023-02-04T04:27:43;100368.59;;;-1.91;100.00
45357;BME280;31092;51.924;21.448;2023-02-04T04:30:10;100352.69;;;-2.07;100.00
45357;BME280;31092;51.924;21.448;2023-02-04T04:32:35;100325.69;;;-2.28;100.00
45357;BME280;31092;51.924;21.448;2023-02-04T04:35:01;100409.63;;;-1.85;100.00
45357;BME280;31092;51.924;21.448;2023-02-04T04:37:26;100307.88;;;-2.40;100.00
45357;BME280;31092;51.924;21.448;2023-02-04T04:39:51;100390.44;;;-2.05;100.00
45357;BME280;31092;51.924;21.448;2023-02-04T04:42:17;100402.66;;;-2.20;100.00
45357;BME280;31092;51.924;21.448;2023-02-04T04:44:42;100347.31;;;-2.54;100.00
45357;BME280;31092;51.924;21.448;2023-02-04T04:47:08;100376.06;;;-2.50;100.00
45357;BME280;31092;51.924;21.448;2023-02-04T04:49:34;100450.59;;;-2.11;100.00
45357;BME280;31092;51.924;21.448;2023-02-04T04:51:59;100456.03;;;-2.14;100.00
45357;BME280;31092;51.924;21.448;2023-02-04T04:54:24;100389.22;;;-2.66;100.00
45357;BME280;31092;51.924;21.448;2023-02-04T04:56:50;100467.25;;;-2.27;100.00
45357;BME280;31092;51.924;21.448;2023-02-04T04:59:15;100476.25;;;-2.31;100.00
45357;BME280;31092;51.924;21.448;2023-02-04T05:01:41;100456.22;;;-2.52;100.00
45357;BME280;31092;51.924;21.448;2023-02-04T05:04:06;100503.88;;;-2.38;100.00
45357;BME280;31092;51.924;21.448;2023-02-04T05:06:32;100412.06;;;-3.01;100.00
45357;BME280;31092;51.924;21.448;2023-02-04T05:08:57;100489.88;;;-2.57;100.00
45357;BME280;31092;51.924;21.448;2023-02-04T05:11:23;100464.56;;;-2.79;100.00
45357;BME280;31092;51.924;21.448;2023-02-04T05:13:48;100551.81;;;-2.30;100.00
45357;BME280;31092;51.924;21.448;2023-02-04T05:16:13;100514.25;;;-2.52;100.00
45357;BME280;31092;51.924;21.448;2023-02-04T05:18:40;100561.84;;;-2.19;100.00
45357;BME280;31092;51.924;21.448;2023-02-04T05:21:05;100567.16;;;-2.21;100.00
45357;BME280;31092;51.924;21.448;2023-02-04T05:23:32;100455.34;;;-2.87;100.00
45357;BME280;31092;51.924;21.448;2023-02-04T05:25:57;100462.22;;;-2.85;100.00
45357;BME280;31092;51.924;21.448;2023-02-04T05:28:22;100561.38;;;-2.27;100.00
45357;BME280;31092;51.924;21.448;2023-02-04T05:30:48;100484.72;;;-2.78;100.00
45357;BME280;31092;51.924;21.448;2023-02-04T05:33:13;100583.69;;;-2.17;100.00
45357;BME280;31092;51.924;21.448;2023-02-04T05:35:39;100582.00;;;-2.18;100.00
45357;BME280;31092;51.924;21.448;2023-02-04T05:38:04;100594.09;;;-2.14;100.00
45357;BME280;31092;51.924;21.448;2023-02-04T05:40:30;100621.16;;;-2.09;100.00
45357;BME280;31092;51.924;21.448;2023-02-04T05:42:55;100619.50;;;-2.11;100.00
45357;BME280;31092;51.924;21.448;2023-02-04T05:45:21;100539.97;;;-2.57;100.00
45357;BME280;31092;51.924;21.448;2023-02-04T05:47:46;100542.56;;;-2.56;100.00
45357;BME280;31092;51.924;21.448;2023-02-04T05:50:12;100529.91;;;-2.67;100.00
45357;BME280;31092;51.924;21.448;2023-02-04T05:52:37;100652.34;;;-2.00;100.00
45357;BME280;31092;51.924;21.448;2023-02-04T05:55:03;100532.13;;;-2.76;100.00
45357;BME280;31092;51.924;21.448;2023-02-04T05:57:29;100554.41;;;-2.65;100.00
45357;BME280;31092;51.924;21.448;2023-02-04T05:59:54;100596.25;;;-2.39;100.00
45357;BME280;31092;51.924;21.448;2023-02-04T06:02:20;100476.56;;;-3.27;100.00
45357;BME280;31092;51.924;21.448;2023-02-04T06:04:45;100566.44;;;-2.59;100.00
45357;BME280;31092;51.924;21.448;2023-02-04T06:07:11;100683.03;;;-1.97;100.00
45357;BME280;31092;51.924;21.448;2023-02-04T06:09:36;100592.00;;;-2.61;100.00
45357;BME280;31092;51.924;21.448;2023-02-04T06:12:02;100621.22;;;-2.47;100.00
45357;BME280;31092;51.924;21.448;2023-02-04T06:14:27;100621.44;;;-2.51;100.00
45357;BME280;31092;51.924;21.448;2023-02-04T06:16:52;100719.13;;;-1.98;100.00
45357;BME280;31092;51.924;21.448;2023-02-04T06:19:18;100695.94;;;-2.10;100.00
45357;BME280;31092;51.924;21.448;2023-02-04T06:21:43;100661.25;;;-2.38;100.00
45357;BME280;31092;51.924;21.448;2023-02-04T06:24:09;100718.09;;;-2.12;100.00
45357;BME280;31092;51.924;21.448;2023-02-04T06:26:34;100767.06;;;-1.88;100.00
45357;BME280;31092;51.924;21.448;2023-02-04T06:29:00;100693.56;;;-2.33;100.00
45357;BME280;31092;51.924;21.448;2023-02-04T06:31:25;100678.31;;;-2.46;100.00
45357;BME280;31092;51.924;21.448;2023-02-04T06:33:51;100785.25;;;-1.82;100.00
45357;BME280;31092;51.924;21.448;2023-02-04T06:36:16;100651.97;;;-2.65;100.00
45357;BME280;31092;51.924;21.448;2023-02-04T06:38:41;100704.13;;;-2.33;100.00
45357;BME280;31092;51.924;21.448;2023-02-04T06:41:07;100779.47;;;-1.90;100.00
45357;BME280;31092;51.924;21.448;2023-02-04T06:43:32;100819.16;;;-1.73;100.00
45357;BME280;31092;51.924;21.448;2023-02-04T06:45:58;100743.13;;;-2.21;100.00
45357;BME280;31092;51.924;21.448;2023-02-04T06:48:23;100767.31;;;-2.11;100.00
45357;BME280;31092;51.924;21.448;2023-02-04T06:50:48;100743.56;;;-2.30;100.00
45357;BME280;31092;51.924;21.448;2023-02-04T06:53:14;100730.75;;;-2.38;100.00
45357;BME280;31092;51.924;21.448;2023-02-04T06:55:40;100861.16;;;-1.68;100.00
45357;BME280;31092;51.924;21.448;2023-02-04T06:58:05;100760.03;;;-2.25;100.00
45357;BME280;31092;51.924;21.448;2023-02-04T07:00:31;100831.72;;;-1.78;100.00
45357;BME280;31092;51.924;21.448;2023-02-04T07:02:56;100815.59;;;-1.90;100.00
45357;BME280;31092;51.924;21.448;2023-02-04T07:05:23;100867.16;;;-1.64;100.00
45357;BME280;31092;51.924;21.448;2023-02-04T07:07:49;100882.88;;;-1.61;100.00
45357;BME280;31092;51.924;21.448;2023-02-04T07:10:15;100877.59;;;-1.61;100.00
45357;BME280;31092;51.924;21.448;2023-02-04T07:12:41;100799.97;;;-2.14;100.00
45357;BME280;31092;51.924;21.448;2023-02-04T07:15:07;100789.78;;;-2.22;100.00
45357;BME280;31092;51.924;21.448;2023-02-04T07:17:33;100795.91;;;-2.21;100.00
45357;BME280;31092;51.924;21.448;2023-02-04T07:19:58;100831.31;;;-2.06;100.00
45357;BME280;31092;51.924;21.448;2023-02-04T07:22:23;100900.88;;;-1.70;100.00
45357;BME280;31092;51.924;21.448;2023-02-04T07:24:49;100863.13;;;-1.90;100.00
45357;BME280;31092;51.924;21.448;2023-02-04T07:27:14;100823.81;;;-2.15;100.00
45357;BME280;31092;51.924;21.448;2023-02-04T07:29:40;100862.03;;;-2.05;100.00
45357;BME280;31092;51.924;21.448;2023-02-04T07:32:05;100920.56;;;-1.77;100.00
45357;BME280;31092;51.924;21.448;2023-02-04T07:34:30;100928.91;;;-1.86;100.00
45357;BME280;31092;51.924;21.448;2023-02-04T07:36:56;100950.75;;;-1.82;100.00
45357;BME280;31092;51.924;21.448;2023-02-04T07:39:21;100857.03;;;-2.51;100.00
45357;BME280;31092;51.924;21.448;2023-02-04T07:41:47;100979.41;;;-1.94;100.00
45357;BME280;31092;51.924;21.448;2023-02-04T07:44:12;100883.88;;;-2.61;100.00
45357;BME280;31092;51.924;21.448;2023-02-04T07:46:38;100918.50;;;-2.49;100.00
45357;BME280;31092;51.924;21.448;2023-02-04T07:49:03;100875.00;;;-2.79;100.00
45357;BME280;31092;51.924;21.448;2023-02-04T07:51:28;101012.69;;;-2.10;100.00
45357;BME280;31092;51.924;21.448;2023-02-04T07:53:55;100978.28;;;-2.27;100.00
45357;BME280;31092;51.924;21.448;2023-02-04T07:56:20;100907.44;;;-2.77;100.00
45357;BME280;31092;51.924;21.448;2023-02-04T07:58:46;100925.34;;;-2.65;100.00
45357;BME280;31092;51.924;21.448;2023-02-04T08:01:11;101017.09;;;-2.10;100.00
45357;BME280;31092;51.924;21.448;2023-02-04T08:03:37;100915.66;;;-2.65;100.00
45357;BME280;31092;51.924;21.448;2023-02-04T08:06:02;101022.47;;;-1.91;100.00
45357;BME280;31092;51.924;21.448;2023-02-04T08:08:28;101039.69;;;-1.83;100.00
45357;BME280;31092;51.924;21.448;2023-02-04T08:10:53;101014.59;;;-1.93;100.00
45357;BME280;31092;51.924;21.448;2023-02-04T08:13:19;100936.53;;;-2.38;100.00
45357;BME280;31092;51.924;21.448;2023-02-04T08:15:44;100973.16;;;-2.11;100.00
45357;BME280;31092;51.924;21.448;2023-02-04T08:18:10;100988.16;;;-1.91;100.00
45357;BME280;31092;51.924;21.448;2023-02-04T08:20:35;101034.28;;;-1.61;100.00
45357;BME280;31092;51.924;21.448;2023-02-04T08:23:00;101045.44;;;-1.54;100.00
45357;BME280;31092;51.924;21.448;2023-02-04T08:25:26;100954.63;;;-2.10;100.00
45357;BME280;31092;51.924;21.448;2023-02-04T08:27:53;100950.00;;;-2.05;100.00
45357;BME280;31092;51.924;21.448;2023-02-04T08:30:18;100994.53;;;-1.77;100.00
45357;BME280;31092;51.924;21.448;2023-02-04T08:32:44;100997.75;;;-1.70;100.00
45357;BME280;31092;51.924;21.448;2023-02-04T08:35:10;101064.63;;;-1.30;100.00
45357;BME280;31092;51.924;21.448;2023-02-04T08:37:36;101028.97;;;-1.59;100.00
45357;BME280;31092;51.924;21.448;2023-02-04T08:40:02;100961.38;;;-2.03;100.00
45357;BME280;31092;51.924;21.448;2023-02-04T08:42:28;101015.16;;;-1.66;100.00
45357;BME280;31092;51.924;21.448;2023-02-04T08:44:53;100998.16;;;-1.79;100.00
45357;BME280;31092;51.924;21.448;2023-02-04T08:47:19;101072.06;;;-1.38;100.00
45357;BME280;31092;51.924;21.448;2023-02-04T08:49:44;101003.09;;;-1.72;100.00
45357;BME280;31092;51.924;21.448;2023-02-04T08:52:09;100960.44;;;-2.02;100.00
45357;BME280;31092;51.924;21.448;2023-02-04T08:54:35;101009.03;;;-1.66;100.00
45357;BME280;31092;51.924;21.448;2023-02-04T08:57:01;101069.19;;;-1.34;100.00
45357;BME280;31092;51.924;21.448;2023-02-04T08:59:26;101076.78;;;-1.26;100.00
45357;BME280;31092;51.924;21.448;2023-02-04T09:01:52;101101.28;;;-1.04;100.00
45357;BME280;31092;51.924;21.448;2023-02-04T09:04:18;100994.50;;;-1.56;100.00
45357;BME280;31092;51.924;21.448;2023-02-04T09:06:45;101116.97;;;-0.80;100.00
45357;BME280;31092;51.924;21.448;2023-02-04T09:09:11;101051.78;;;-1.19;100.00
45357;BME280;31092;51.924;21.448;2023-02-04T09:11:37;101037.50;;;-1.34;100.00
45357;BME280;31092;51.924;21.448;2023-02-04T09:14:03;101135.41;;;-0.79;100.00
45357;BME280;31092;51.924;21.448;2023-02-04T09:16:29;101044.25;;;-1.28;100.00
45357;BME280;31092;51.924;21.448;2023-02-04T09:18:55;101072.84;;;-1.17;100.00
45357;BME280;31092;51.924;21.448;2023-02-04T09:21:20;101140.63;;;-0.77;100.00
45357;BME280;31092;51.924;21.448;2023-02-04T09:23:46;101147.69;;;-0.59;100.00
45357;BME280;31092;51.924;21.448;2023-02-04T09:26:12;101149.34;;;-0.75;100.00
45357;BME280;31092;51.924;21.448;2023-02-04T09:28:38;101119.59;;;-0.99;100.00
45357;BME280;31092;51.924;21.448;2023-02-04T09:31:03;101135.06;;;-1.10;100.00
45357;BME280;31092;51.924;21.448;2023-02-04T09:33:31;101149.78;;;-1.03;100.00
45357;BME280;31092;51.924;21.448;2023-02-04T09:35:57;101071.84;;;-1.34;100.00
45357;BME280;31092;51.924;21.448;2023-02-04T09:38:22;101143.22;;;-0.57;100.00
45357;BME280;31092;51.924;21.448;2023-02-04T09:40:53;101067.13;;;-0.89;100.00
45357;BME280;31092;51.924;21.448;2023-02-04T09:43:22;101070.94;;;-0.95;100.00
45357;BME280;31092;51.924;21.448;2023-02-04T09:45:50;101165.72;;;-0.12;100.00
45357;BME280;31092;51.924;21.448;2023-02-04T09:48:16;101099.66;;;-0.50;100.00
45357;BME280;31092;51.924;21.448;2023-02-04T09:50:42;101095.06;;;-0.65;100.00
45357;BME280;31092;51.924;21.448;2023-02-04T09:53:12;101162.38;;;-0.70;100.00
45357;BME280;31092;51.924;21.448;2023-02-04T09:55:42;101183.03;;;-0.41;100.00
45357;BME280;31092;51.924;21.448;2023-02-04T09:58:20;101101.38;;;-0.67;100.00
45357;BME280;31092;51.924;21.448;2023-02-04T10:00:48;101188.44;;;-0.25;100.00
45357;BME280;31092;51.924;21.448;2023-02-04T10:03:17;101195.72;;;-0.11;100.00
45357;BME280;31092;51.924;21.448;2023-02-04T10:05:45;101173.53;;;-0.09;100.00
45357;BME280;31092;51.924;21.448;2023-02-04T10:08:17;101178.00;;;0.08;100.00
45357;BME280;31092;51.924;21.448;2023-02-04T10:10:44;101152.97;;;-0.04;100.00
45357;BME280;31092;51.924;21.448;2023-02-04T10:13:16;101169.44;;;0.20;100.00
45357;BME280;31092;51.924;21.448;2023-02-04T10:15:44;101137.44;;;0.25;100.00
45357;BME280;31092;51.924;21.448;2023-02-04T10:18:13;101081.84;;;-0.11;100.00
45357;BME280;31092;51.924;21.448;2023-02-04T10:20:42;101151.59;;;0.24;100.00
45357;BME280;31092;51.924;21.448;2023-02-04T10:23:09;101133.13;;;0.05;100.00
45357;BME280;31092;51.924;21.448;2023-02-04T10:25:35;101071.25;;;-0.29;100.00
45357;BME280;31092;51.924;21.448;2023-02-04T10:28:00;101182.47;;;0.42;100.00
45357;BME280;31092;51.924;21.448;2023-02-04T10:30:40;101088.34;;;0.01;100.00
45357;BME280;31092;51.924;21.448;2023-02-04T10:33:12;101099.47;;;0.07;100.00
45357;BME280;31092;51.924;21.448;2023-02-04T10:35:45;101187.84;;;0.58;100.00
45357;BME280;31092;51.924;21.448;2023-02-04T10:38:11;101092.69;;;0.02;100.00
45357;BME280;31092;51.924;21.448;2023-02-04T10:40:37;101112.56;;;0.28;100.00
45357;BME280;31092;51.924;21.448;2023-02-04T10:43:16;101151.84;;;0.37;100.00
45357;BME280;31092;51.924;21.448;2023-02-04T10:45:47;101132.59;;;0.33;100.00
45357;BME280;31092;51.924;21.448;2023-02-04T10:48:17;101223.31;;;0.90;100.00
45357;BME280;31092;51.924;21.448;2023-02-04T10:50:45;101179.81;;;0.08;100.00
45357;BME280;31092;51.924;21.448;2023-02-04T10:53:14;101202.09;;;-0.15;100.00
45357;BME280;31092;51.924;21.448;2023-02-04T10:55:58;101203.03;;;-0.54;100.00
45357;BME280;31092;51.924;21.448;2023-02-04T10:58:29;101135.38;;;-1.16;100.00
45357;BME280;31092;51.924;21.448;2023-02-04T11:00:55;101201.16;;;-0.90;100.00
45357;BME280;31092;51.924;21.448;2023-02-04T11:03:30;101230.97;;;-0.86;100.00
45357;BME280;31092;51.924;21.448;2023-02-04T11:05:57;101146.69;;;-1.54;100.00
45357;BME280;31092;51.924;21.448;2023-02-04T11:08:30;101236.94;;;-1.22;100.00
45357;BME280;31092;51.924;21.448;2023-02-04T11:11:05;101269.34;;;-1.17;100.00
45357;BME280;31092;51.924;21.448;2023-02-04T11:13:56;101151.56;;;-1.85;100.00
45357;BME280;31092;51.924;21.448;2023-02-04T11:18:56;101244.13;;;-1.46;100.00
45357;BME280;31092;51.924;21.448;2023-02-04T11:21:24;101273.88;;;-1.41;100.00
45357;BME280;31092;51.924;21.448;2023-02-04T11:24:01;101249.69;;;-1.52;100.00
45357;BME280;31092;51.924;21.448;2023-02-04T11:26:36;101170.47;;;-2.17;100.00
45357;BME280;31092;51.924;21.448;2023-02-04T11:36:56;101287.19;;;-1.86;100.00
45357;BME280;31092;51.924;21.448;2023-02-04T11:39:35;101298.72;;;-1.89;100.00
45357;BME280;31092;51.924;21.448;2023-02-04T11:42:02;101254.97;;;-2.18;100.00
45357;BME280;31092;51.924;21.448;2023-02-04T11:44:29;101289.38;;;-1.98;100.00
45357;BME280;31092;51.924;21.448;2023-02-04T11:46:55;101301.84;;;-2.01;100.00
45357;BME280;31092;51.924;21.448;2023-02-04T11:49:25;101239.97;;;-2.39;100.00
45357;BME280;31092;51.924;21.448;2023-02-04T11:51:50;101270.94;;;-2.21;100.00
45357;BME280;31092;51.924;21.448;2023-02-04T11:54:17;101216.19;;;-2.61;100.00
45357;BME280;31092;51.924;21.448;2023-02-04T11:56:46;101198.34;;;-2.78;100.00
45357;BME280;31092;51.924;21.448;2023-02-04T11:59:13;101197.56;;;-2.80;100.00
45357;BME280;31092;51.924;21.448;2023-02-04T12:01:39;101178.78;;;-2.95;100.00
45357;BME280;31092;51.924;21.448;2023-02-04T12:04:18;101293.31;;;-2.31;100.00
45357;BME280;31092;51.924;21.448;2023-02-04T12:06:56;101314.75;;;-2.17;100.00
45357;BME280;31092;51.924;21.448;2023-02-04T12:09:25;101209.50;;;-2.70;100.00
45357;BME280;31092;51.924;21.448;2023-02-04T12:11:55;101269.63;;;-2.33;100.00
45357;BME280;31092;51.924;21.448;2023-02-04T12:14:21;101278.47;;;-2.34;100.00
45357;BME280;31092;51.924;21.448;2023-02-04T12:16:52;101296.66;;;-2.26;100.00
45357;BME280;31092;51.924;21.448;2023-02-04T12:19:17;101265.41;;;-2.37;100.00
45357;BME280;31092;51.924;21.448;2023-02-04T12:21:43;101273.19;;;-2.34;100.00
45357;BME280;31092;51.924;21.448;2023-02-04T12:24:08;101193.94;;;-2.78;100.00
45357;BME280;31092;51.924;21.448;2023-02-04T12:26:34;101175.88;;;-2.89;100.00
45357;BME280;31092;51.924;21.448;2023-02-04T12:29:00;101212.19;;;-2.72;100.00
45357;BME280;31092;51.924;21.448;2023-02-04T12:31:31;101220.72;;;-2.65;100.00
45357;BME280;31092;51.924;21.448;2023-02-04T12:33:57;101296.56;;;-2.25;100.00
45357;BME280;31092;51.924;21.448;2023-02-04T12:36:26;101331.47;;;-2.17;100.00
45357;BME280;31092;51.924;21.448;2023-02-04T12:38:53;101320.09;;;-2.19;100.00
45357;BME280;31092;51.924;21.448;2023-02-04T12:41:19;101216.88;;;-2.80;100.00
45357;BME280;31092;51.924;21.448;2023-02-04T12:43:45;101216.78;;;-2.77;100.00
45357;BME280;31092;51.924;21.448;2023-02-04T12:46:10;101315.91;;;-2.24;100.00
45357;BME280;31092;51.924;21.448;2023-02-04T12:48:36;101208.66;;;-2.96;100.00
45357;BME280;31092;51.924;21.448;2023-02-04T12:51:05;101214.69;;;-2.92;100.00
45357;BME280;31092;51.924;21.448;2023-02-04T12:53:31;101304.22;;;-2.41;100.00